createdAt,value
2023-03-24T00:00:48.234Z,19.36
2023-03-24T00:01:48.229Z,19.36
2023-03-24T00:02:48.308Z,19.37
2023-03-24T00:03:48.338Z,19.36
2023-03-24T00:04:48.234Z,19.39
2023-03-24T00:05:48.253Z,19.40
2023-03-24T00:06:48.196Z,19.28
2023-03-24T00:07:48.200Z,19.33
2023-03-24T00:08:48.389Z,19.33
2023-03-24T00:09:48.192Z,19.41
2023-03-24T00:10:48.193Z,19.36
2023-03-24T00:11:48.173Z,19.36
2023-03-24T00:12:48.178Z,19.33
2023-03-24T00:13:48.173Z,19.43
2023-03-24T00:14:48.176Z,19.43
2023-03-24T00:15:48.220Z,19.40
2023-03-24T00:16:48.176Z,19.29
2023-03-24T00:17:48.173Z,19.32
2023-03-24T00:18:48.170Z,19.40
2023-03-24T00:19:48.154Z,19.32
2023-03-24T00:20:48.181Z,19.36
2023-03-24T00:21:48.177Z,19.32
2023-03-24T00:22:48.166Z,19.43
2023-03-24T00:23:48.153Z,19.37
2023-03-24T00:24:48.149Z,19.36
2023-03-24T00:25:48.143Z,19.41
2023-03-24T00:26:48.145Z,19.43
2023-03-24T00:27:48.162Z,19.39
2023-03-24T00:28:48.166Z,19.36
2023-03-24T00:29:48.130Z,19.39
2023-03-24T00:30:48.130Z,19.31
2023-03-24T00:31:48.150Z,19.31
2023-03-24T00:32:48.183Z,19.29
2023-03-24T00:33:48.145Z,19.40
2023-03-24T00:34:48.127Z,19.25
2023-03-24T00:35:48.183Z,19.40
2023-03-24T00:36:48.137Z,19.41
2023-03-24T00:37:48.132Z,19.39
2023-03-24T00:38:48.106Z,19.31
2023-03-24T00:39:48.109Z,19.32
2023-03-24T00:40:48.109Z,19.40
2023-03-24T00:41:48.111Z,19.31
2023-03-24T00:42:48.098Z,19.33
2023-03-24T00:43:48.109Z,19.36
2023-03-24T00:44:48.104Z,19.29
2023-03-24T00:45:48.096Z,19.32
2023-03-24T00:46:48.099Z,19.29
2023-03-24T00:47:48.101Z,19.36
2023-03-24T00:48:48.081Z,19.29
2023-03-24T00:49:48.117Z,19.36
2023-03-24T00:50:48.087Z,19.25
2023-03-24T00:51:48.091Z,19.37
2023-03-24T00:52:48.280Z,19.28
2023-03-24T00:53:48.072Z,19.32
2023-03-24T00:54:48.074Z,19.40
2023-03-24T00:55:48.065Z,19.32
2023-03-24T00:56:48.109Z,19.36
2023-03-24T00:57:48.063Z,19.26
2023-03-24T00:58:48.062Z,19.31
2023-03-24T00:59:48.056Z,19.26
2023-03-24T01:00:48.338Z,19.28
2023-03-24T01:01:48.089Z,19.37
2023-03-24T01:02:48.087Z,19.33
2023-03-24T01:03:48.062Z,19.31
2023-03-24T01:04:48.041Z,19.28
2023-03-24T01:05:48.025Z,19.36
2023-03-24T01:06:48.044Z,19.36
2023-03-24T01:07:48.026Z,19.22
2023-03-24T01:08:48.109Z,19.32
2023-03-24T01:09:48.026Z,19.33
2023-03-24T01:10:48.014Z,19.36
2023-03-24T01:11:48.023Z,19.25
2023-03-24T01:12:48.020Z,19.32
2023-03-24T01:13:48.018Z,19.31
2023-03-24T01:14:48.013Z,19.39
2023-03-24T01:15:48.010Z,19.26
2023-03-24T01:16:48.045Z,19.28
2023-03-24T01:17:48.057Z,19.21
2023-03-24T01:18:48.005Z,19.33
2023-03-24T01:19:47.995Z,19.26
2023-03-24T01:20:48.005Z,19.32
2023-03-24T01:21:48.000Z,19.23
2023-03-24T01:22:48.002Z,19.28
2023-03-24T01:23:47.998Z,19.29
2023-03-24T01:24:48.026Z,19.39
2023-03-24T01:25:47.988Z,19.29
2023-03-24T01:26:47.996Z,19.32
2023-03-24T01:27:47.967Z,19.28
2023-03-24T01:28:47.980Z,19.28
2023-03-24T01:29:47.955Z,19.28
2023-03-24T01:30:47.959Z,19.33
2023-03-24T01:31:48.001Z,19.28
2023-03-24T01:32:47.975Z,19.31
2023-03-24T01:33:47.953Z,19.33
2023-03-24T01:34:47.951Z,19.26
2023-03-24T01:35:47.977Z,19.33
2023-03-24T01:36:47.964Z,19.25
2023-03-24T01:37:47.952Z,19.28
2023-03-24T01:38:47.940Z,19.33
2023-03-24T01:39:47.948Z,19.21
2023-03-24T01:40:47.948Z,19.26
2023-03-24T01:41:47.930Z,19.32
2023-03-24T01:42:47.933Z,19.26
2023-03-24T01:43:47.927Z,19.26
2023-03-24T01:44:47.943Z,19.25
2023-03-24T01:45:47.929Z,19.29
2023-03-24T01:46:47.910Z,19.28
2023-03-24T01:47:47.938Z,19.25
2023-03-24T01:48:47.936Z,19.28
2023-03-24T01:49:47.913Z,19.29
2023-03-24T01:50:47.914Z,19.26
2023-03-24T01:51:47.906Z,19.29
2023-03-24T01:52:47.916Z,19.29
2023-03-24T01:53:47.894Z,19.22
2023-03-24T01:54:47.890Z,19.28
2023-03-24T01:55:47.904Z,19.32
2023-03-24T01:56:47.921Z,19.25
2023-03-24T01:57:47.888Z,19.26
2023-03-24T01:58:47.883Z,19.25
2023-03-24T01:59:47.907Z,19.26
2023-03-24T02:00:47.873Z,19.26
2023-03-24T02:01:47.865Z,19.26
2023-03-24T02:02:47.912Z,19.26
2023-03-24T02:03:47.887Z,19.26
2023-03-24T02:04:47.885Z,19.26
2023-03-24T02:05:47.862Z,19.22
2023-03-24T02:06:47.858Z,19.23
2023-03-24T02:07:47.850Z,19.28
2023-03-24T02:08:47.853Z,19.23
2023-03-24T02:09:47.861Z,19.28
2023-03-24T02:10:47.996Z,19.26
2023-03-24T02:11:47.833Z,19.31
2023-03-24T02:12:47.869Z,19.26
2023-03-24T02:13:47.846Z,19.22
2023-03-24T02:14:48.001Z,19.22
2023-03-24T02:15:47.837Z,19.28
2023-03-24T02:16:47.847Z,19.29
2023-03-24T02:17:47.874Z,19.25
2023-03-24T02:18:47.825Z,19.28
2023-03-24T02:19:47.836Z,19.26
2023-03-24T02:20:47.879Z,19.26
2023-03-24T02:21:47.823Z,19.22
2023-03-24T02:22:47.840Z,19.19
2023-03-24T02:23:47.807Z,19.26
2023-03-24T02:24:47.818Z,19.25
2023-03-24T02:25:47.827Z,19.28
2023-03-24T02:26:47.807Z,19.22
2023-03-24T02:27:47.799Z,19.23
2023-03-24T02:28:47.947Z,19.23
2023-03-24T02:29:47.798Z,19.23
2023-03-24T02:30:47.818Z,19.29
2023-03-24T02:31:47.841Z,19.29
2023-03-24T02:32:47.822Z,19.28
2023-03-24T02:33:47.789Z,19.26
2023-03-24T02:34:47.804Z,19.26
2023-03-24T02:35:47.812Z,19.25
2023-03-24T02:36:47.776Z,19.23
2023-03-24T02:37:47.781Z,19.22
2023-03-24T02:38:47.786Z,19.22
2023-03-24T02:39:47.794Z,19.29
2023-03-24T02:40:48.024Z,19.29
2023-03-24T02:41:47.757Z,19.21
2023-03-24T02:42:47.771Z,19.29
2023-03-24T02:43:47.770Z,19.31
2023-03-24T02:44:47.771Z,19.28
2023-03-24T02:45:47.775Z,19.26
2023-03-24T02:46:47.735Z,19.29
2023-03-24T02:47:47.804Z,19.33
2023-03-24T02:48:47.744Z,19.28
2023-03-24T02:49:47.732Z,19.22
2023-03-24T02:50:47.820Z,19.22
2023-03-24T02:51:47.731Z,19.25
2023-03-24T02:52:47.737Z,19.25
2023-03-24T02:53:47.735Z,19.23
2023-03-24T02:54:47.714Z,19.26
2023-03-24T02:55:47.736Z,19.29
2023-03-24T02:56:47.815Z,19.25
2023-03-24T02:57:47.704Z,19.23
2023-03-24T02:58:47.714Z,19.23
2023-03-24T02:59:47.719Z,19.28
2023-03-24T03:00:47.898Z,19.25
2023-03-24T03:01:47.733Z,19.28
2023-03-24T03:02:47.747Z,19.25
2023-03-24T03:03:47.760Z,19.25
2023-03-24T03:04:47.732Z,19.31
2023-03-24T03:05:47.680Z,19.21
2023-03-24T03:06:47.685Z,19.22
2023-03-24T03:07:47.697Z,19.25
2023-03-24T03:08:47.717Z,19.28
2023-03-24T03:09:47.698Z,19.26
2023-03-24T03:10:47.915Z,19.23
2023-03-24T03:11:47.687Z,19.26
2023-03-24T03:12:49.420Z,19.26
2023-03-24T03:13:47.702Z,19.29
2023-03-24T03:14:47.646Z,19.25
2023-03-24T03:15:47.704Z,19.31
2023-03-24T03:16:47.679Z,19.23
2023-03-24T03:17:47.696Z,19.25
2023-03-24T03:18:47.666Z,19.21
2023-03-24T03:19:47.671Z,19.28
2023-03-24T03:20:47.746Z,19.26
2023-03-24T03:21:47.637Z,19.22
2023-03-24T03:22:47.650Z,19.22
2023-03-24T03:23:47.656Z,19.25
2023-03-24T03:24:47.632Z,19.23
2023-03-24T03:25:47.644Z,19.28
2023-03-24T03:26:47.644Z,19.28
2023-03-24T03:27:47.641Z,19.21
2023-03-24T03:28:47.641Z,19.21
2023-03-24T03:29:47.645Z,19.26
2023-03-24T03:30:47.817Z,19.28
2023-03-24T03:31:47.625Z,19.29
2023-03-24T03:32:47.699Z,19.28
2023-03-24T03:33:47.630Z,19.28
2023-03-24T03:34:47.613Z,19.26
2023-03-24T03:35:47.918Z,19.23
2023-03-24T03:36:47.604Z,19.25
2023-03-24T03:37:47.597Z,19.25
2023-03-24T03:38:47.614Z,19.31
2023-03-24T03:39:47.605Z,19.21
2023-03-24T03:40:47.600Z,19.22
2023-03-24T03:41:47.598Z,19.23
2023-03-24T03:42:47.589Z,19.25
2023-03-24T03:43:47.591Z,19.26
2023-03-24T03:44:47.589Z,19.25
2023-03-24T03:45:47.765Z,19.26
2023-03-24T03:46:47.585Z,19.26
2023-03-24T03:47:47.607Z,19.26
2023-03-24T03:48:47.591Z,19.23
2023-03-24T03:49:47.581Z,19.26
2023-03-24T03:50:47.558Z,19.21
2023-03-24T03:51:47.567Z,19.29
2023-03-24T03:52:47.563Z,19.26
2023-03-24T03:53:47.571Z,19.25
2023-03-24T03:54:47.548Z,19.26
2023-03-24T03:55:47.617Z,19.32
2023-03-24T03:56:47.565Z,19.25
2023-03-24T03:57:47.553Z,19.26
2023-03-24T03:58:47.557Z,19.29
2023-03-24T03:59:47.550Z,19.31
2023-03-24T04:00:47.541Z,19.21
2023-03-24T04:01:47.553Z,19.26
2023-03-24T04:02:47.591Z,19.26
2023-03-24T04:03:47.575Z,19.29
2023-03-24T04:04:50.682Z,19.36
2023-03-24T04:05:47.543Z,19.21
2023-03-24T04:06:47.529Z,19.28
2023-03-24T04:07:47.519Z,19.31
2023-03-24T04:08:47.519Z,19.28
2023-03-24T04:09:47.527Z,19.29
2023-03-24T04:10:47.510Z,19.21
2023-03-24T04:11:47.523Z,19.28
2023-03-24T04:12:47.525Z,19.22
2023-03-24T04:13:47.567Z,19.23
2023-03-24T04:14:47.552Z,19.26
2023-03-24T04:15:47.990Z,19.25
2023-03-24T04:16:47.537Z,19.28
2023-03-24T04:17:47.612Z,19.25
2023-03-24T04:18:47.479Z,19.25
2023-03-24T04:19:47.489Z,19.22
2023-03-24T04:20:47.520Z,19.26
2023-03-24T04:21:47.510Z,19.23
2023-03-24T04:22:47.476Z,19.22
2023-03-24T04:23:47.481Z,19.23
2023-03-24T04:24:47.457Z,19.32
2023-03-24T04:25:47.476Z,19.29
2023-03-24T04:26:47.461Z,19.22
2023-03-24T04:27:47.462Z,19.32
2023-03-24T04:28:47.471Z,19.23
2023-03-24T04:29:47.461Z,19.26
2023-03-24T04:30:47.443Z,19.25
2023-03-24T04:31:47.543Z,19.23
2023-03-24T04:32:47.522Z,19.22
2023-03-24T04:33:47.458Z,19.23
2023-03-24T04:34:47.433Z,19.28
2023-03-24T04:35:47.550Z,19.22
2023-03-24T04:36:47.441Z,19.23
2023-03-24T04:37:47.467Z,19.31
2023-03-24T04:38:47.416Z,19.33
2023-03-24T04:39:47.431Z,19.25
2023-03-24T04:40:47.705Z,19.31
2023-03-24T04:41:47.454Z,19.25
2023-03-24T04:42:47.429Z,19.29
2023-03-24T04:43:47.433Z,19.28
2023-03-24T04:44:47.401Z,19.22
2023-03-24T04:45:47.727Z,19.28
2023-03-24T04:46:47.404Z,19.23
2023-03-24T04:47:47.500Z,19.21
2023-03-24T04:48:47.406Z,19.23
2023-03-24T04:49:47.400Z,19.25
2023-03-24T04:50:47.398Z,19.31
2023-03-24T04:51:47.414Z,19.25
2023-03-24T04:52:47.412Z,19.22
2023-03-24T04:53:47.400Z,19.28
2023-03-24T04:54:47.383Z,19.28
2023-03-24T04:55:47.379Z,19.28
2023-03-24T04:56:47.393Z,19.32
2023-03-24T04:57:47.373Z,19.32
2023-03-24T04:58:47.362Z,19.31
2023-03-24T04:59:47.385Z,19.26
2023-03-24T05:00:47.412Z,19.19
2023-03-24T05:01:47.352Z,19.31
2023-03-24T05:02:47.361Z,19.23
2023-03-24T05:03:47.402Z,19.26
2023-03-24T05:04:47.342Z,19.25
2023-03-24T05:05:47.352Z,19.23
2023-03-24T05:06:47.344Z,19.28
2023-03-24T05:07:47.354Z,19.23
2023-03-24T05:08:47.339Z,19.25
2023-03-24T05:09:47.336Z,19.23
2023-03-24T05:10:47.344Z,19.32
2023-03-24T05:11:47.337Z,19.25
2023-03-24T05:12:47.323Z,19.32
2023-03-24T05:13:47.334Z,19.23
2023-03-24T05:14:47.324Z,19.31
2023-03-24T05:15:47.410Z,19.21
2023-03-24T05:16:47.380Z,19.23
2023-03-24T05:17:47.377Z,19.29
2023-03-24T05:18:47.298Z,19.26
2023-03-24T05:19:47.318Z,19.23
2023-03-24T05:20:47.305Z,19.25
2023-03-24T05:21:47.296Z,19.25
2023-03-24T05:22:47.313Z,19.26
2023-03-24T05:23:47.319Z,19.28
2023-03-24T05:24:47.314Z,19.28
2023-03-24T05:25:47.278Z,19.29
2023-03-24T05:26:47.287Z,19.31
2023-03-24T05:27:47.296Z,19.23
2023-03-24T05:28:47.267Z,19.22
2023-03-24T05:29:47.281Z,19.21
2023-03-24T05:30:47.364Z,19.21
2023-03-24T05:31:47.265Z,19.25
2023-03-24T05:32:47.572Z,19.25
2023-03-24T05:33:47.272Z,19.19
2023-03-24T05:35:29.683Z,19.29
2023-03-24T05:36:29.694Z,19.21
2023-03-24T05:37:29.686Z,19.22
2023-03-24T05:38:29.672Z,19.28
2023-03-24T05:39:29.671Z,19.26
2023-03-24T05:40:29.696Z,19.25
2023-03-24T05:41:29.654Z,19.21
2023-03-24T05:42:29.660Z,19.25
2023-03-24T05:43:29.646Z,19.31
2023-03-24T05:45:29.638Z,19.28
2023-03-24T05:46:29.708Z,19.23
2023-03-24T05:47:29.663Z,19.29
2023-03-24T05:48:29.658Z,19.26
2023-03-24T05:49:29.634Z,19.31
2023-03-24T05:50:29.644Z,19.31
2023-03-24T05:51:29.638Z,19.26
2023-03-24T05:52:29.656Z,19.36
2023-03-24T05:53:29.660Z,19.36
2023-03-24T05:54:29.626Z,19.37
2023-03-24T05:55:29.612Z,19.41
2023-03-24T05:56:29.653Z,19.40
2023-03-24T05:57:29.608Z,19.44
2023-03-24T05:58:29.617Z,19.46
2023-03-24T05:59:29.617Z,19.47
2023-03-24T06:00:29.628Z,19.43
2023-03-24T06:01:29.612Z,19.47
2023-03-24T06:02:29.743Z,19.43
2023-03-24T06:03:29.794Z,19.46
2023-03-24T06:04:29.671Z,19.51
2023-03-24T06:05:29.602Z,19.55
2023-03-24T06:06:29.600Z,19.55
2023-03-24T06:07:29.598Z,19.59
2023-03-24T06:08:29.595Z,19.54
2023-03-24T06:09:29.608Z,19.63
2023-03-24T06:10:29.604Z,19.59
2023-03-24T06:11:29.596Z,19.66
2023-03-24T06:12:29.614Z,19.69
2023-03-24T06:13:29.571Z,19.69
2023-03-24T06:14:29.573Z,19.68
2023-03-24T06:15:29.592Z,19.73
2023-03-24T06:16:29.639Z,19.73
2023-03-24T06:17:29.651Z,19.71
2023-03-24T06:18:29.560Z,19.77
2023-03-24T06:19:29.576Z,19.74
2023-03-24T06:20:29.567Z,19.74
2023-03-24T06:21:29.560Z,19.80
2023-03-24T06:22:29.556Z,19.73
2023-03-24T06:23:29.676Z,19.84
2023-03-24T06:24:29.552Z,19.84
2023-03-24T06:25:29.564Z,19.83
2023-03-24T06:26:29.559Z,19.86
2023-03-24T06:27:29.564Z,19.87
2023-03-24T06:28:29.612Z,19.95
2023-03-24T06:29:29.552Z,20.03
2023-03-24T06:30:29.536Z,20.03
2023-03-24T06:31:29.611Z,19.99
2023-03-24T06:32:29.585Z,19.95
2023-03-24T06:33:29.549Z,19.99
2023-03-24T06:34:29.533Z,19.98
2023-03-24T06:35:29.549Z,20.02
2023-03-24T06:36:29.556Z,19.99
2023-03-24T06:37:29.542Z,20.02
2023-03-24T06:38:29.633Z,20.02
2023-03-24T06:39:29.537Z,20.01
2023-03-24T06:40:29.542Z,20.03
2023-03-24T06:41:29.527Z,20.03
2023-03-24T06:42:29.554Z,19.99
2023-03-24T06:43:29.511Z,20.08
2023-03-24T06:44:29.539Z,19.98
2023-03-24T06:45:31.163Z,20.08
2023-03-24T06:46:29.502Z,20.02
2023-03-24T06:47:29.535Z,19.99
2023-03-24T06:48:29.566Z,20.05
2023-03-24T06:49:29.511Z,19.96
2023-03-24T06:50:29.520Z,20.02
2023-03-24T06:51:29.538Z,20.01
2023-03-24T06:52:29.493Z,20.01
2023-03-24T06:53:29.509Z,19.99
2023-03-24T06:54:29.491Z,20.01
2023-03-24T06:55:29.501Z,19.99
2023-03-24T06:56:29.547Z,20.01
2023-03-24T06:57:29.512Z,20.01
2023-03-24T06:58:29.530Z,19.99
2023-03-24T06:59:29.484Z,19.98
2023-03-24T07:00:29.518Z,19.95
2023-03-24T07:01:29.533Z,20.03
2023-03-24T07:02:29.660Z,19.99
2023-03-24T07:03:29.682Z,20.02
2023-03-24T07:04:29.486Z,19.98
2023-03-24T07:05:29.483Z,19.94
2023-03-24T07:06:29.478Z,19.96
2023-03-24T07:08:08.330Z,20.02
2023-03-24T07:08:37.470Z,19.94
2023-03-24T07:09:29.472Z,19.86
2023-03-24T07:10:29.515Z,19.86
2023-03-24T07:11:29.463Z,19.84
2023-03-24T07:12:29.461Z,19.87
2023-03-24T07:13:29.474Z,19.94
2023-03-24T07:14:29.440Z,19.94
2023-03-24T07:15:29.446Z,19.95
2023-03-24T07:16:29.538Z,19.87
2023-03-24T07:17:29.471Z,19.84
2023-03-24T07:18:29.476Z,19.86
2023-03-24T07:19:29.479Z,19.83
2023-03-24T07:20:29.478Z,19.86
2023-03-24T07:21:29.443Z,19.83
2023-03-24T07:22:29.451Z,19.77
2023-03-24T07:23:29.431Z,19.80
2023-03-24T07:24:31.606Z,19.81
2023-03-24T07:25:29.458Z,19.73
2023-03-24T07:26:29.452Z,19.83
2023-03-24T07:27:29.429Z,19.78
2023-03-24T07:28:29.432Z,19.78
2023-03-24T07:29:29.556Z,19.73
2023-03-24T07:30:39.382Z,19.73
2023-03-24T07:31:29.451Z,19.71
2023-03-24T07:32:29.464Z,19.76
2023-03-24T07:33:29.421Z,19.73
2023-03-24T07:34:29.410Z,19.73
2023-03-24T07:35:29.421Z,19.74
2023-03-24T07:36:29.429Z,19.73
2023-03-24T07:37:29.405Z,19.71
2023-03-24T07:38:29.405Z,19.74
2023-03-24T07:39:29.408Z,19.69
2023-03-24T07:40:29.407Z,19.61
2023-03-24T07:41:29.417Z,19.66
2023-03-24T07:42:29.388Z,19.71
2023-03-24T07:43:29.401Z,19.66
2023-03-24T07:44:29.397Z,19.68
2023-03-24T07:45:29.462Z,19.63
2023-03-24T07:46:29.415Z,19.62
2023-03-24T07:47:29.686Z,19.74
2023-03-24T07:48:29.410Z,19.69
2023-03-24T07:49:29.392Z,19.66
2023-03-24T07:50:29.393Z,19.68
2023-03-24T07:51:29.384Z,19.68
2023-03-24T07:52:29.359Z,19.73
2023-03-24T07:53:29.365Z,19.73
2023-03-24T07:54:29.374Z,19.69
2023-03-24T07:55:29.365Z,19.74
2023-03-24T07:56:29.381Z,19.65
2023-03-24T07:57:29.350Z,19.68
2023-03-24T07:58:29.357Z,19.63
2023-03-24T07:59:29.396Z,19.68
2023-03-24T08:00:29.594Z,19.71
2023-03-24T08:01:29.354Z,19.66
2023-03-24T08:02:29.496Z,19.58
2023-03-24T08:03:29.490Z,19.58
2023-03-24T08:04:29.393Z,19.56
2023-03-24T08:05:29.340Z,19.61
2023-03-24T08:06:29.368Z,19.56
2023-03-24T08:07:29.364Z,19.59
2023-03-24T08:08:29.327Z,19.56
2023-03-24T08:09:29.329Z,19.59
2023-03-24T08:10:29.348Z,19.59
2023-03-24T08:11:29.364Z,19.61
2023-03-24T08:12:29.345Z,19.58
2023-03-24T08:13:29.317Z,19.56
2023-03-24T08:14:29.314Z,19.59
2023-03-24T08:15:29.323Z,19.56
2023-03-24T08:16:29.393Z,19.59
2023-03-24T08:17:29.373Z,19.59
2023-03-24T08:18:29.335Z,19.62
2023-03-24T08:19:29.304Z,19.62
2023-03-24T08:20:29.346Z,19.58
2023-03-24T08:21:29.310Z,19.58
2023-03-24T08:22:29.314Z,19.61
2023-03-24T08:23:29.301Z,19.58
2023-03-24T08:24:29.297Z,19.56
2023-03-24T08:25:29.301Z,19.63
2023-03-24T08:26:29.295Z,19.58
2023-03-24T08:27:29.309Z,19.59
2023-03-24T08:28:29.299Z,19.59
2023-03-24T08:29:29.294Z,19.59
2023-03-24T08:30:29.311Z,19.55
2023-03-24T08:31:29.293Z,19.54
2023-03-24T08:32:29.296Z,19.51
2023-03-24T08:33:29.268Z,19.55
2023-03-24T08:34:29.267Z,19.59
2023-03-24T08:35:29.286Z,19.58
2023-03-24T08:36:29.276Z,19.55
2023-03-24T08:37:29.261Z,19.48
2023-03-24T08:38:29.259Z,19.54
2023-03-24T08:39:29.290Z,19.56
2023-03-24T08:40:29.248Z,19.58
2023-03-24T08:41:29.295Z,19.54
2023-03-24T08:42:29.244Z,19.48
2023-03-24T08:43:29.265Z,19.56
2023-03-24T08:44:31.125Z,19.54
2023-03-24T08:45:29.263Z,19.58
2023-03-24T08:46:29.305Z,19.51
2023-03-24T08:47:29.313Z,19.51
2023-03-24T08:48:29.239Z,19.51
2023-03-24T08:49:29.240Z,19.50
2023-03-24T08:50:29.237Z,19.47
2023-03-24T08:51:29.227Z,19.43
2023-03-24T08:52:29.355Z,19.50
2023-03-24T08:53:29.236Z,19.51
2023-03-24T08:54:29.234Z,19.46
2023-03-24T08:55:29.224Z,19.56
2023-03-24T08:56:29.238Z,19.50
2023-03-24T08:57:29.227Z,19.58
2023-03-24T08:58:29.212Z,19.48
2023-03-24T08:59:29.221Z,19.55
2023-03-24T09:00:29.341Z,19.54
2023-03-24T09:01:29.217Z,19.51
2023-03-24T09:02:29.238Z,19.55
2023-03-24T09:03:29.188Z,19.43
2023-03-24T09:04:29.246Z,19.58
2023-03-24T09:05:43.181Z,19.50
2023-03-24T09:06:29.193Z,19.48
2023-03-24T09:07:29.200Z,19.56
2023-03-24T09:08:29.219Z,19.41
2023-03-24T09:09:29.182Z,19.41
2023-03-24T09:10:29.186Z,19.43
2023-03-24T09:11:29.178Z,19.54
2023-03-24T09:12:29.199Z,19.44
2023-03-24T09:13:29.177Z,19.55
2023-03-24T09:14:29.186Z,19.58
2023-03-24T09:15:29.196Z,19.48
2023-03-24T09:16:29.208Z,19.54
2023-03-24T09:17:29.195Z,19.50
2023-03-24T09:18:29.185Z,19.44
2023-03-24T09:19:29.165Z,19.41
2023-03-24T09:20:29.162Z,19.44
2023-03-24T09:21:29.158Z,19.47
2023-03-24T09:22:29.167Z,19.47
2023-03-24T09:23:29.164Z,19.47
2023-03-24T09:24:29.169Z,19.43
2023-03-24T09:25:29.149Z,19.43
2023-03-24T09:26:29.132Z,19.55
2023-03-24T09:27:30.808Z,19.51
2023-03-24T09:28:29.124Z,19.43
2023-03-24T09:29:29.146Z,19.43
2023-03-24T09:30:30.943Z,19.51
2023-03-24T09:31:29.180Z,19.51
2023-03-24T09:32:29.226Z,19.44
2023-03-24T09:33:29.134Z,19.47
2023-03-24T09:34:29.111Z,19.43
2023-03-24T09:35:29.128Z,19.54
2023-03-24T09:36:31.102Z,19.48
2023-03-24T09:37:29.106Z,19.46
2023-03-24T09:38:29.122Z,19.47
2023-03-24T09:39:29.099Z,19.51
2023-03-24T09:40:29.138Z,19.44
2023-03-24T09:41:29.158Z,19.43
2023-03-24T09:42:29.103Z,19.43
2023-03-24T09:43:29.118Z,19.43
2023-03-24T09:44:29.118Z,19.48
2023-03-24T09:45:29.095Z,19.44
2023-03-24T09:46:29.133Z,19.54
2023-03-24T09:47:29.128Z,19.47
2023-03-24T09:48:29.099Z,19.43
2023-03-24T09:49:29.094Z,19.51
2023-03-24T09:50:29.102Z,19.44
2023-03-24T09:51:29.081Z,19.51
2023-03-24T09:52:29.103Z,19.48
2023-03-24T09:53:29.091Z,19.50
2023-03-24T09:54:29.098Z,19.51
2023-03-24T09:55:29.070Z,19.48
2023-03-24T09:56:29.145Z,19.47
2023-03-24T09:57:29.091Z,19.44
2023-03-24T09:58:29.061Z,19.50
2023-03-24T09:59:29.080Z,19.47
2023-03-24T10:00:29.118Z,19.50
2023-03-24T10:01:29.138Z,19.41
2023-03-24T10:02:29.185Z,19.50
2023-03-24T10:03:29.109Z,19.39
2023-03-24T10:04:29.057Z,19.46
2023-03-24T10:05:29.059Z,19.51
2023-03-24T10:06:29.052Z,19.46
2023-03-24T10:07:29.035Z,19.48
2023-03-24T10:08:30.767Z,19.37
2023-03-24T10:09:29.033Z,19.51
2023-03-24T10:10:29.031Z,19.40
2023-03-24T10:11:29.030Z,19.44
2023-03-24T10:12:29.074Z,19.39
2023-03-24T10:13:29.021Z,19.50
2023-03-24T10:14:29.037Z,19.37
2023-03-24T10:16:29.135Z,19.47
2023-03-24T10:17:29.053Z,19.46
2023-03-24T10:18:29.029Z,19.47
2023-03-24T10:19:29.029Z,19.40
2023-03-24T10:20:29.004Z,19.46
2023-03-24T10:21:29.027Z,19.36
2023-03-24T10:22:29.024Z,19.50
2023-03-24T10:23:29.014Z,19.36
2023-03-24T10:24:29.007Z,19.40
2023-03-24T10:25:29.012Z,19.46
2023-03-24T10:26:28.991Z,19.48
2023-03-24T10:27:29.012Z,19.44
2023-03-24T10:28:29.043Z,19.43
2023-03-24T10:29:29.008Z,19.41
2023-03-24T10:30:29.008Z,19.46
2023-03-24T10:31:29.000Z,19.32
2023-03-24T10:32:29.008Z,19.44
2023-03-24T10:33:28.994Z,19.47
2023-03-24T10:34:28.980Z,19.46
2023-03-24T10:35:28.978Z,19.48
2023-03-24T10:36:28.995Z,19.44
2023-03-24T10:37:28.966Z,19.46
2023-03-24T10:38:28.974Z,19.43
2023-03-24T10:39:42.010Z,19.46
2023-03-24T10:40:33.501Z,19.43
2023-03-24T10:41:28.976Z,19.43
2023-03-24T10:42:28.956Z,19.48
2023-03-24T10:43:28.957Z,19.40
2023-03-24T10:44:28.971Z,19.36
2023-03-24T10:45:28.976Z,19.43
2023-03-24T10:46:28.970Z,19.48
2023-03-24T10:47:30.711Z,19.36
2023-03-24T10:48:28.936Z,19.40
2023-03-24T10:49:28.960Z,19.36
2023-03-24T10:50:28.960Z,19.41
2023-03-24T10:51:28.967Z,19.36
2023-03-24T10:52:28.943Z,19.39
2023-03-24T10:53:28.925Z,19.33
2023-03-24T10:54:28.949Z,19.37
2023-03-24T10:55:28.933Z,19.31
2023-03-24T10:56:28.935Z,19.43
2023-03-24T10:57:28.909Z,19.37
2023-03-24T10:58:28.918Z,19.36
2023-03-24T10:59:28.927Z,19.37
2023-03-24T11:00:28.953Z,19.41
2023-03-24T11:01:28.948Z,19.31
2023-03-24T11:02:28.970Z,19.36
2023-03-24T11:03:28.957Z,19.41
2023-03-24T11:04:28.902Z,19.39
2023-03-24T11:05:28.918Z,19.47
2023-03-24T11:06:28.936Z,19.32
2023-03-24T11:07:28.893Z,19.37
2023-03-24T11:08:28.904Z,19.39
2023-03-24T11:09:28.892Z,19.37
2023-03-24T11:10:28.891Z,19.28
2023-03-24T11:11:28.886Z,19.36
2023-03-24T11:12:28.871Z,19.39
2023-03-24T11:13:28.873Z,19.39
2023-03-24T11:14:28.885Z,19.40
2023-03-24T11:15:28.863Z,19.36
2023-03-24T11:16:28.957Z,19.37
2023-03-24T11:17:28.884Z,19.37
2023-03-24T11:18:28.885Z,19.28
2023-03-24T11:19:28.870Z,19.36
2023-03-24T11:20:28.863Z,19.36
2023-03-24T11:21:28.847Z,19.37
2023-03-24T11:22:28.870Z,19.39
2023-03-24T11:23:28.862Z,19.39
2023-03-24T11:24:28.846Z,19.36
2023-03-24T11:25:29.396Z,19.36
2023-03-24T11:26:28.847Z,19.36
2023-03-24T11:27:28.828Z,19.36
2023-03-24T11:28:28.832Z,19.33
2023-03-24T11:29:28.825Z,19.39
2023-03-24T11:30:28.837Z,19.39
2023-03-24T11:31:28.894Z,19.39
2023-03-24T11:32:28.927Z,19.31
2023-03-24T11:33:34.923Z,19.31
2023-03-24T11:34:28.842Z,19.33
2023-03-24T11:35:39.298Z,19.31
2023-03-24T11:36:28.946Z,19.37
2023-03-24T11:37:28.814Z,19.37
2023-03-24T11:38:28.814Z,19.39
2023-03-24T11:39:28.819Z,19.36
2023-03-24T11:40:29.046Z,19.39
2023-03-24T11:41:28.828Z,19.39
2023-03-24T11:42:28.799Z,19.33
2023-03-24T11:43:28.800Z,19.43
2023-03-24T11:44:28.815Z,19.41
2023-03-24T11:45:28.795Z,19.39
2023-03-24T11:46:28.859Z,19.36
2023-03-24T11:47:28.837Z,19.44
2023-03-24T11:48:28.805Z,19.50
2023-03-24T11:49:28.789Z,19.40
2023-03-24T11:50:28.820Z,19.31
2023-03-24T11:51:28.873Z,19.48
2023-03-24T11:52:28.784Z,19.47
2023-03-24T11:53:28.774Z,19.43
2023-03-24T11:54:30.097Z,19.39
2023-03-24T11:55:28.789Z,19.46
2023-03-24T11:56:28.783Z,19.48
2023-03-24T11:57:28.771Z,19.39
2023-03-24T11:58:28.806Z,19.46
2023-03-24T11:59:28.762Z,19.36
2023-03-24T12:00:30.087Z,19.48
2023-03-24T12:01:28.770Z,19.47
2023-03-24T12:02:28.842Z,19.43
2023-03-24T12:03:28.926Z,19.46
2023-03-24T12:04:28.782Z,19.31
2023-03-24T12:05:28.838Z,19.37
2023-03-24T12:06:28.845Z,19.43
2023-03-24T12:07:28.765Z,19.39
2023-03-24T12:08:28.752Z,19.36
2023-03-24T12:09:28.722Z,19.39
2023-03-24T12:10:28.728Z,19.41
2023-03-24T12:11:28.726Z,19.43
2023-03-24T12:12:28.744Z,19.46
2023-03-24T12:13:33.115Z,19.48
2023-03-24T12:14:28.718Z,19.46
2023-03-24T12:15:29.259Z,19.41
2023-03-24T12:16:28.786Z,19.46
2023-03-24T12:17:28.772Z,19.33
2023-03-24T12:18:28.738Z,19.32
2023-03-24T12:19:28.701Z,19.39
2023-03-24T12:20:28.724Z,19.50
2023-03-24T12:21:28.712Z,19.43
2023-03-24T12:22:28.715Z,19.39
2023-03-24T12:23:28.738Z,19.43
2023-03-24T12:24:28.696Z,19.48
2023-03-24T12:25:28.711Z,19.44
2023-03-24T12:26:28.684Z,19.36
2023-03-24T12:27:28.686Z,19.44
2023-03-24T12:28:28.697Z,19.50
2023-03-24T12:29:28.706Z,19.46
2023-03-24T12:30:28.689Z,19.46
2023-03-24T12:31:28.807Z,19.36
2023-03-24T12:32:28.698Z,19.32
2023-03-24T12:33:28.683Z,19.39
2023-03-24T12:34:28.665Z,19.47
2023-03-24T12:35:28.696Z,19.47
2023-03-24T12:36:28.679Z,19.46
2023-03-24T12:37:28.677Z,19.48
2023-03-24T12:38:28.675Z,19.48
2023-03-24T12:39:28.675Z,19.46
2023-03-24T12:40:28.716Z,19.33
2023-03-24T12:41:28.652Z,19.46
2023-03-24T12:42:28.697Z,19.51
2023-03-24T12:43:28.647Z,19.40
2023-03-24T12:44:28.657Z,19.40
2023-03-24T12:45:28.681Z,19.44
2023-03-24T12:46:37.134Z,19.48
2023-03-24T12:47:28.648Z,19.46
2023-03-24T12:48:28.669Z,19.40
2023-03-24T12:49:28.623Z,19.41
2023-03-24T12:50:28.660Z,19.44
2023-03-24T12:51:28.639Z,19.44
2023-03-24T12:52:28.648Z,19.46
2023-03-24T12:53:28.624Z,19.44
2023-03-24T12:54:28.624Z,19.40
2023-03-24T12:55:28.639Z,19.43